Nearby METAR Reports

Aktualna pogoda na lotniskach (dane METAR)

 

EPGD - Gdansk/Rebiechow, Poland
Distance from station: ENE 27mi, 44km
Updated: Wed, 26-Feb-2020 10:00am PST
Partly Cloudy
Partly Cloudy
 Wind from W
Wind: W 13 mph , 20 km/h
Temperature: 36°F , 2°C
Wind Chill: 27°F , -3°C
Dew Point: 28°F , -2°C
Humidity: 75%
Barometer: 29.26 inHg , 991 hPa
Clouds: Partly Cloudy
Visibility: 6 miles , 10 km
Cloud details: Partly Cloudy 2400 ft
2020/02/26 18:00 EPGD 261800Z 26011KT 9999 SCT024 02/M02 Q0991
EPSC - Szczecin/Golenio, Poland
Distance from station: WSW 128mi, 205km
Updated: Wed, 26-Feb-2020 10:00am PST
Few Clouds
Few Clouds
 Wind from WSW
Wind: WSW 7 mph , 11 km/h
Temperature: 37°F , 3°C
Wind Chill: 32°F , 0°C
Dew Point: 32°F , 0°C
Humidity: 81%
Barometer: 29.35 inHg , 994 hPa
Clouds: Few Clouds
Visibility: 6 miles , 10 km
Cloud details: Few Clouds 2400 ft
2020/02/26 18:00 EPSC 261800Z 24006KT 9999 FEW024 03/M00 Q0994
 
EPPO - Poznan/Lawica, Poland
Distance from station: SSW 131mi, 210km
Updated: Wed, 26-Feb-2020 10:00am PST
Partly Cloudy
Partly Cloudy
 Wind from W
Wind: W 7 mph , 11 km/h
Temperature: 36°F , 2°C
Wind Chill: 30°F , -1°C
Dew Point: 34°F , 1°C
Humidity: 93%
Barometer: 29.38 inHg , 995 hPa
Clouds: Partly Cloudy
Visibility: 6 miles , 10 km
Cloud details: Partly Cloudy 500 ft
2020/02/26 18:00 EPPO 261800Z 26006KT 9999 SCT005 02/01 Q0995
EPLL - Lodz/Lublinek, Poland
Distance from station: SSE 184mi, 296km
Updated: Wed, 26-Feb-2020 10:00am PST
Light rain, Mostly cloudy
Light rain, Mostly cloudy
 Wind from WSW
Wind: WSW 14 mph , 22 km/h
Temperature: 37°F , 3°C
Wind Chill: 28°F , -2°C
Dew Point: 34°F , 1°C
Humidity: 87%
Barometer: 29.38 inHg , 995 hPa
Summary: Light Rain
Clouds: Mostly Cloudy
Visibility: 6 miles , 10 km
Cloud details: Mostly Cloudy 1200 ft
Mostly Cloudy 1400 ft
2020/02/26 18:00 EPLL 261800Z 25012KT 9999 -RA BKN012 BKN014 03/01 Q0995
 
EPWA - Warsaw/Okecie, Poland
Distance from station: SE 191mi, 307km
Updated: Wed, 26-Feb-2020 10:00am PST
Light rain, Showers, Few clouds
Light rain, Showers, Few clouds
 Wind from W
Wind: W 3 mph , 6 km/h
Temperature: 41°F , 5°C
Dew Point: 36°F , 2°C
Humidity: 81%
Barometer: 29.32 inHg , 993 hPa
Summary: Light rain, Showers
Clouds: Few Clouds
Visibility: 6 miles , 10 km
Cloud details: Few Clouds 3100 ft
Few Clouds 4500 ft
2020/02/26 18:00 EPWA 261800Z 27003KT 9999 -SHRA FEW031 FEW045CB 05/02 Q0993 NOSIG
EPWR - Wroclaw/Strachow, Poland
Distance from station: S 219mi, 352km
Updated: Wed, 26-Feb-2020 10:00am PST
Light rain, Showers, Mostly cloudy
Light rain, Showers, Mostly cloudy
 Wind from WNW
Wind: WNW 16 mph , 26 km/h
Temperature: 37°F , 3°C
Wind Chill: 28°F , -2°C
Dew Point: 32°F , 0°C
Humidity: 81%
Barometer: 29.44 inHg , 997 hPa
Summary: Light rain, Showers
Clouds: Mostly Cloudy
Visibility: 6 miles , 10 km
Cloud details: Few Clouds 2200 ft
Partly Cloudy 4200 ft
Mostly Cloudy 4700 ft
2020/02/26 18:00 EPWR 261800Z 29014KT 9999 -SHRA FEW022CB SCT042 BKN047 03/M00 Q0997

Metar display script from Saratoga-Weather.org